createdAt,value
2023-01-31T00:00:56.122Z,98399.97
2023-01-31T00:03:22.641Z,98379.38
2023-01-31T00:05:49.161Z,98386.38
2023-01-31T00:08:15.689Z,98389.75
2023-01-31T00:10:42.165Z,98367.50
2023-01-31T00:13:08.640Z,98395.34
2023-01-31T00:15:35.240Z,98395.00
2023-01-31T00:18:01.768Z,98384.91
2023-01-31T00:20:28.468Z,98392.47
2023-01-31T00:22:54.993Z,98400.47
2023-01-31T00:25:21.853Z,98388.94
2023-01-31T00:27:48.511Z,98396.69
2023-01-31T00:30:15.142Z,98391.44
2023-01-31T00:32:41.665Z,98395.22
2023-01-31T00:35:08.470Z,98395.72
2023-01-31T00:37:35.050Z,98385.91
2023-01-31T00:40:01.556Z,98400.44
2023-01-31T00:42:28.091Z,98408.53
2023-01-31T00:44:54.616Z,98409.50
2023-01-31T00:47:21.144Z,98408.16
2023-01-31T00:49:47.603Z,98404.56
2023-01-31T00:52:14.146Z,98414.75
2023-01-31T00:54:40.725Z,98414.97
2023-01-31T00:57:07.233Z,98402.66
2023-01-31T00:59:34.320Z,98409.59
2023-01-31T01:02:01.074Z,98395.22
2023-01-31T01:04:27.579Z,98419.59
2023-01-31T01:06:54.284Z,98418.34
2023-01-31T01:09:22.801Z,98415.81
2023-01-31T01:11:49.366Z,98409.31
2023-01-31T01:14:15.902Z,98412.66
2023-01-31T01:16:42.488Z,98405.94
2023-01-31T01:19:16.716Z,98413.63
2023-01-31T01:21:44.407Z,98396.09
2023-01-31T01:24:15.826Z,98408.28
2023-01-31T01:26:42.846Z,98424.13
2023-01-31T01:29:09.427Z,98423.31
2023-01-31T01:31:37.532Z,98414.06
2023-01-31T01:34:06.145Z,98430.34
2023-01-31T01:36:34.592Z,98437.28
2023-01-31T01:39:01.355Z,98423.41
2023-01-31T01:41:28.631Z,98434.22
2023-01-31T01:43:56.971Z,98436.13
2023-01-31T01:46:26.890Z,98427.72
2023-01-31T01:48:58.264Z,98427.22
2023-01-31T01:51:24.786Z,98419.84
2023-01-31T01:53:54.543Z,98436.34
2023-01-31T01:56:26.845Z,98429.72
2023-01-31T01:59:00.366Z,98423.19
2023-01-31T02:01:29.070Z,98415.75
2023-01-31T02:03:55.498Z,98430.56
2023-01-31T02:06:22.010Z,98437.94
2023-01-31T02:08:48.520Z,98435.09
2023-01-31T02:11:24.213Z,98430.69
2023-01-31T02:13:53.095Z,98442.03
2023-01-31T02:16:19.652Z,98438.56
2023-01-31T02:18:46.336Z,98457.19
2023-01-31T02:21:43.700Z,98433.50
2023-01-31T02:24:24.932Z,98445.09
2023-01-31T02:27:13.168Z,98444.59
2023-01-31T02:29:58.003Z,98453.00
2023-01-31T02:33:02.135Z,98445.94
2023-01-31T02:35:38.380Z,98454.16
2023-01-31T02:38:31.987Z,98456.47
2023-01-31T02:41:34.430Z,98463.50
2023-01-31T02:44:32.738Z,98464.78
2023-01-31T02:47:02.069Z,98471.84
2023-01-31T02:49:34.836Z,98466.34
2023-01-31T02:52:16.319Z,98481.41
2023-01-31T02:55:15.696Z,98477.94
2023-01-31T02:57:42.185Z,98486.53
2023-01-31T03:00:09.318Z,98492.88
2023-01-31T03:02:35.889Z,98492.00
2023-01-31T03:05:03.389Z,98475.81
2023-01-31T03:07:33.492Z,98485.28
2023-01-31T03:10:34.129Z,98493.06
2023-01-31T03:13:33.973Z,98492.66
2023-01-31T03:16:36.576Z,98509.28
2023-01-31T03:19:13.771Z,98518.31
2023-01-31T03:21:54.549Z,98520.63
2023-01-31T03:24:21.048Z,98519.78
2023-01-31T03:26:47.674Z,98519.78
2023-01-31T03:29:15.390Z,98509.06
2023-01-31T03:31:47.137Z,98524.81
2023-01-31T03:34:13.740Z,98521.66
2023-01-31T03:36:50.973Z,98532.41
2023-01-31T03:39:29.927Z,98534.91
2023-01-31T03:42:03.121Z,98526.63
2023-01-31T03:44:40.803Z,98536.81
2023-01-31T03:47:14.811Z,98544.06
2023-01-31T03:49:42.582Z,98534.69
2023-01-31T03:52:09.166Z,98544.25
2023-01-31T03:54:39.592Z,98552.06
2023-01-31T03:57:24.370Z,98539.97
2023-01-31T03:59:55.659Z,98543.41
2023-01-31T04:02:24.675Z,98552.16
2023-01-31T04:04:54.371Z,98542.06
2023-01-31T04:07:21.343Z,98554.25
2023-01-31T04:09:47.849Z,98553.09
2023-01-31T04:12:14.664Z,98547.50
2023-01-31T04:14:42.033Z,98555.38
2023-01-31T04:17:08.514Z,98574.44
2023-01-31T04:19:34.980Z,98576.94
2023-01-31T04:22:01.543Z,98568.16
2023-01-31T04:24:28.019Z,98576.03
2023-01-31T04:26:54.513Z,98590.84
2023-01-31T04:29:21.011Z,98587.28
2023-01-31T04:31:47.655Z,98589.25
2023-01-31T04:34:14.285Z,98587.47
2023-01-31T04:36:41.917Z,98585.59
2023-01-31T04:39:10.103Z,98582.19
2023-01-31T04:41:36.631Z,98585.78
2023-01-31T04:44:03.149Z,98593.03
2023-01-31T04:46:29.713Z,98603.66
2023-01-31T04:48:56.181Z,98593.25
2023-01-31T04:51:22.677Z,98597.13
2023-01-31T04:53:49.140Z,98589.78
2023-01-31T04:56:15.914Z,98601.56
2023-01-31T04:58:43.492Z,98595.34
2023-01-31T05:01:10.104Z,98603.22
2023-01-31T05:03:36.615Z,98605.56
2023-01-31T05:06:03.173Z,98599.47
2023-01-31T05:08:29.653Z,98588.94
2023-01-31T05:11:02.257Z,98596.09
2023-01-31T05:13:33.046Z,98601.38
2023-01-31T05:15:59.591Z,98584.63
2023-01-31T05:18:26.239Z,98586.19
2023-01-31T05:20:52.911Z,98583.69
2023-01-31T05:23:19.504Z,98583.03
2023-01-31T05:25:49.286Z,98593.34
2023-01-31T05:28:15.791Z,98601.84
2023-01-31T05:30:42.360Z,98594.81
2023-01-31T05:33:09.055Z,98592.28
2023-01-31T05:35:38.765Z,98590.84
2023-01-31T05:38:05.495Z,98587.88
2023-01-31T05:40:32.313Z,98582.63
2023-01-31T05:43:01.011Z,98591.88
2023-01-31T05:45:28.480Z,98577.38
2023-01-31T05:47:55.085Z,98564.63
2023-01-31T05:50:22.128Z,98565.38
2023-01-31T05:52:56.217Z,98577.13
2023-01-31T05:55:23.066Z,98572.72
2023-01-31T05:57:49.669Z,98586.63
2023-01-31T06:00:16.423Z,98575.03
2023-01-31T06:02:42.930Z,98580.28
2023-01-31T06:05:09.702Z,98597.72
2023-01-31T06:07:36.286Z,98595.81
2023-01-31T06:10:02.833Z,98600.16
2023-01-31T06:12:29.385Z,98599.41
2023-01-31T06:14:55.854Z,98600.25
2023-01-31T06:17:24.334Z,98596.78
2023-01-31T06:19:51.671Z,98590.97
2023-01-31T06:22:19.094Z,98603.72
2023-01-31T06:24:45.783Z,98593.97
2023-01-31T06:27:12.265Z,98612.34
2023-01-31T06:29:38.769Z,98618.44
2023-01-31T06:32:05.277Z,98617.50
2023-01-31T06:34:31.783Z,98623.59
2023-01-31T06:36:59.074Z,98616.66
2023-01-31T06:39:26.174Z,98622.09
2023-01-31T06:41:52.631Z,98634.31
2023-01-31T06:44:19.626Z,98624.94
2023-01-31T06:46:46.121Z,98627.16
2023-01-31T06:49:13.767Z,98630.75
2023-01-31T06:51:40.257Z,98623.59
2023-01-31T06:54:06.785Z,98622.75
2023-01-31T06:56:33.306Z,98620.00
2023-01-31T06:58:59.786Z,98605.47
2023-01-31T07:01:27.106Z,98638.41
2023-01-31T07:03:54.232Z,98637.69
2023-01-31T07:06:22.253Z,98643.88
2023-01-31T07:08:48.850Z,98652.09
2023-01-31T07:11:15.372Z,98661.03
2023-01-31T07:13:41.877Z,98670.28
2023-01-31T07:16:08.506Z,98658.09
2023-01-31T07:18:35.063Z,98663.78
2023-01-31T07:21:01.875Z,98659.59
2023-01-31T07:23:28.510Z,98660.44
2023-01-31T07:25:55.021Z,98671.13
2023-01-31T07:28:21.543Z,98661.28
2023-01-31T07:30:48.597Z,98662.75
2023-01-31T07:33:15.233Z,98644.75
2023-01-31T07:35:42.873Z,98656.97
2023-01-31T07:38:10.476Z,98660.88
2023-01-31T07:40:39.999Z,98655.41
2023-01-31T07:43:06.481Z,98665.72
2023-01-31T07:45:33.446Z,98667.31
2023-01-31T07:48:00.125Z,98660.69
2023-01-31T07:50:27.836Z,98658.59
2023-01-31T07:52:54.509Z,98667.19
2023-01-31T07:55:21.488Z,98661.28
2023-01-31T07:57:48.562Z,98660.25
2023-01-31T08:00:33.789Z,98661.28
2023-01-31T08:03:18.911Z,98659.50
2023-01-31T08:05:46.592Z,98668.69
2023-01-31T08:08:13.629Z,98658.72
2023-01-31T08:10:40.594Z,98665.94
2023-01-31T08:13:07.180Z,98663.00
2023-01-31T08:15:34.005Z,98663.50
2023-01-31T08:18:00.579Z,98656.22
2023-01-31T08:20:27.310Z,98663.34
2023-01-31T08:22:53.854Z,98657.50
2023-01-31T08:25:20.995Z,98658.72
2023-01-31T08:27:47.642Z,98672.31
2023-01-31T08:30:14.226Z,98678.13
2023-01-31T08:32:40.701Z,98688.88
2023-01-31T08:35:07.676Z,98682.59
2023-01-31T08:37:34.567Z,98696.09
2023-01-31T08:40:01.021Z,98690.13
2023-01-31T08:42:27.526Z,98695.06
2023-01-31T08:44:54.048Z,98682.88
2023-01-31T08:47:20.528Z,98685.41
2023-01-31T08:49:47.051Z,98696.56
2023-01-31T08:52:13.573Z,98689.41
2023-01-31T08:54:40.066Z,98690.34
2023-01-31T08:57:06.564Z,98690.75
2023-01-31T08:59:33.225Z,98693.94
2023-01-31T09:01:59.749Z,98692.75
2023-01-31T09:04:26.307Z,98692.75
2023-01-31T09:06:54.107Z,98704.09
2023-01-31T09:09:20.592Z,98710.84
2023-01-31T09:11:47.162Z,98712.09
2023-01-31T09:14:13.724Z,98719.25
2023-01-31T09:16:42.476Z,98706.63
2023-01-31T09:19:10.985Z,98693.97
2023-01-31T09:21:37.479Z,98701.44
2023-01-31T09:24:04.231Z,98706.16
2023-01-31T09:26:31.251Z,98707.66
2023-01-31T09:28:58.843Z,98706.06
2023-01-31T09:31:25.366Z,98697.31
2023-01-31T09:33:52.151Z,98706.50
2023-01-31T09:36:20.183Z,98692.72
2023-01-31T09:38:46.812Z,98695.16
2023-01-31T09:41:28.488Z,98697.44
2023-01-31T09:44:06.591Z,98688.91
2023-01-31T09:46:37.301Z,98689.78
2023-01-31T09:49:06.082Z,98679.44
2023-01-31T09:51:33.964Z,98696.31
2023-01-31T09:54:00.721Z,98696.72
2023-01-31T09:56:27.108Z,98703.47
2023-01-31T09:58:58.543Z,98704.34
2023-01-31T10:01:28.187Z,98699.88
2023-01-31T10:04:32.059Z,98688.09
2023-01-31T10:07:17.704Z,98692.13
2023-01-31T10:09:49.684Z,98674.97
2023-01-31T10:12:19.042Z,98686.00
2023-01-31T10:14:50.406Z,98678.97
2023-01-31T10:17:24.761Z,98679.91
2023-01-31T10:19:58.025Z,98686.88
2023-01-31T10:22:33.711Z,98670.84
2023-01-31T10:25:06.361Z,98675.09
2023-01-31T10:27:41.035Z,98674.88
2023-01-31T10:30:12.484Z,98670.44
2023-01-31T10:32:42.170Z,98668.66
2023-01-31T10:35:20.399Z,98668.78
2023-01-31T10:37:49.634Z,98656.75
2023-01-31T10:40:18.888Z,98662.88
2023-01-31T10:42:48.333Z,98670.88
2023-01-31T10:45:20.163Z,98652.84
2023-01-31T10:47:50.560Z,98648.22
2023-01-31T10:50:32.161Z,98624.56
2023-01-31T10:53:01.694Z,98627.91
2023-01-31T10:55:52.939Z,98631.91
2023-01-31T10:58:20.181Z,98620.97
2023-01-31T11:00:47.329Z,98612.50
2023-01-31T11:03:13.913Z,98595.53
2023-01-31T11:05:50.306Z,98584.31
2023-01-31T11:08:36.299Z,98602.53
2023-01-31T11:11:13.346Z,98600.94
2023-01-31T11:13:40.118Z,98589.38
2023-01-31T11:16:10.787Z,98587.19
2023-01-31T11:18:43.751Z,98568.66
2023-01-31T11:21:10.239Z,98570.63
2023-01-31T11:23:36.760Z,98576.03
2023-01-31T11:26:03.637Z,98577.31
2023-01-31T11:28:40.127Z,98554.38
2023-01-31T11:31:09.782Z,98569.53
2023-01-31T11:33:39.440Z,98580.28
2023-01-31T11:36:13.478Z,98559.81
2023-01-31T11:38:40.015Z,98558.94
2023-01-31T11:41:32.162Z,98549.41
2023-01-31T11:44:15.786Z,98533.84
2023-01-31T11:46:43.190Z,98542.25
2023-01-31T11:49:48.119Z,98541.53
2023-01-31T11:52:19.085Z,98548.50
2023-01-31T11:54:50.811Z,98532.91
2023-01-31T11:57:21.756Z,98512.63
2023-01-31T11:59:49.936Z,98498.03
2023-01-31T12:02:38.110Z,98514.09
2023-01-31T12:05:17.997Z,98522.00
2023-01-31T12:07:47.186Z,98522.84
2023-01-31T12:10:33.069Z,98520.94
2023-01-31T12:13:17.764Z,98514.84
2023-01-31T12:15:50.088Z,98519.81
2023-01-31T12:18:21.287Z,98534.38
2023-01-31T12:21:06.335Z,98520.44
2023-01-31T12:23:46.424Z,98510.97
2023-01-31T12:26:25.610Z,98526.72
2023-01-31T12:29:26.172Z,98511.69
2023-01-31T12:32:00.593Z,98497.66
2023-01-31T12:34:47.079Z,98498.44
2023-01-31T12:37:30.742Z,98483.16
2023-01-31T12:39:57.204Z,98486.13
2023-01-31T12:42:43.876Z,98477.81
2023-01-31T12:45:54.979Z,98469.69
2023-01-31T12:48:40.517Z,98467.56
2023-01-31T12:51:31.846Z,98477.25
2023-01-31T12:54:24.059Z,98458.16
2023-01-31T12:57:04.851Z,98457.31
2023-01-31T13:00:07.861Z,98445.69
2023-01-31T13:02:49.962Z,98457.78
2023-01-31T13:05:33.846Z,98437.94
2023-01-31T13:08:06.644Z,98440.44
2023-01-31T13:10:39.837Z,98448.81
2023-01-31T13:13:09.907Z,98452.22
2023-01-31T13:15:58.268Z,98438.94
2023-01-31T13:18:24.969Z,98441.91
2023-01-31T13:21:05.560Z,98428.50
2023-01-31T13:23:38.708Z,98446.66
2023-01-31T13:26:32.455Z,98440.06
2023-01-31T13:29:07.751Z,98432.72
2023-01-31T13:31:40.162Z,98431.44
2023-01-31T13:34:12.410Z,98435.63
2023-01-31T13:36:52.459Z,98424.38
2023-01-31T13:39:25.318Z,98439.44
2023-01-31T13:41:51.920Z,98438.47
2023-01-31T13:44:18.525Z,98434.63
2023-01-31T13:47:01.382Z,98437.28
2023-01-31T13:49:39.506Z,98439.53
2023-01-31T13:52:28.941Z,98455.50
2023-01-31T13:54:58.447Z,98448.16
2023-01-31T13:57:32.858Z,98436.56
2023-01-31T14:00:14.898Z,98426.47
2023-01-31T14:02:41.430Z,98428.53
2023-01-31T14:05:43.383Z,98428.53
2023-01-31T14:08:27.024Z,98414.66
2023-01-31T14:10:57.672Z,98421.25
2023-01-31T14:13:33.193Z,98418.38
2023-01-31T14:16:00.064Z,98414.28
2023-01-31T14:18:40.517Z,98406.78
2023-01-31T14:21:28.868Z,98408.09
2023-01-31T14:23:56.275Z,98411.66
2023-01-31T14:26:44.278Z,98416.69
2023-01-31T14:29:31.054Z,98415.25
2023-01-31T14:31:57.742Z,98429.25
2023-01-31T14:34:28.834Z,98417.16
2023-01-31T14:36:58.293Z,98413.56
2023-01-31T14:39:32.055Z,98405.19
2023-01-31T14:42:22.914Z,98399.19
2023-01-31T14:45:12.592Z,98410.56
2023-01-31T14:47:49.176Z,98414.50
2023-01-31T14:50:40.225Z,98412.56
2023-01-31T14:53:18.976Z,98407.53
2023-01-31T14:56:10.127Z,98389.84
2023-01-31T14:58:36.666Z,98387.91
2023-01-31T15:01:05.460Z,98364.47
2023-01-31T15:03:35.292Z,98365.41
2023-01-31T15:06:11.358Z,98370.91
2023-01-31T15:08:46.003Z,98369.00
2023-01-31T15:11:41.376Z,98366.97
2023-01-31T15:14:35.327Z,98380.16
2023-01-31T15:17:06.909Z,98381.19
2023-01-31T15:19:39.553Z,98374.50
2023-01-31T15:22:07.932Z,98385.03
2023-01-31T15:24:43.645Z,98378.91
2023-01-31T15:27:23.950Z,98367.53
2023-01-31T15:30:05.254Z,98348.53
2023-01-31T15:32:41.879Z,98362.06
2023-01-31T15:35:29.438Z,98373.41
2023-01-31T15:38:05.638Z,98382.13
2023-01-31T15:40:32.298Z,98397.00
2023-01-31T15:43:20.649Z,98407.03
2023-01-31T15:45:51.548Z,98408.59
2023-01-31T15:48:19.609Z,98394.69
2023-01-31T15:50:56.903Z,98400.94
2023-01-31T15:53:27.721Z,98380.94
2023-01-31T15:55:56.164Z,98373.25
2023-01-31T15:58:24.873Z,98382.81
2023-01-31T16:00:52.839Z,98376.84
2023-01-31T16:03:21.444Z,98385.09
2023-01-31T16:05:50.174Z,98395.50
2023-01-31T16:08:34.052Z,98378.78
2023-01-31T16:11:06.979Z,98357.66
2023-01-31T16:13:37.837Z,98367.22
2023-01-31T16:16:05.244Z,98378.38
2023-01-31T16:18:31.943Z,98381.13
2023-01-31T16:20:58.421Z,98377.53
2023-01-31T16:23:31.713Z,98379.13
2023-01-31T16:26:10.368Z,98380.88
2023-01-31T16:28:42.057Z,98375.88
2023-01-31T16:31:13.603Z,98393.31
2023-01-31T16:33:49.773Z,98393.13
2023-01-31T16:36:22.168Z,98384.25
2023-01-31T16:39:04.692Z,98388.91
2023-01-31T16:41:48.423Z,98382.81
2023-01-31T16:44:18.320Z,98382.19
2023-01-31T16:46:46.006Z,98379.03
2023-01-31T16:49:25.603Z,98383.25
2023-01-31T16:51:58.066Z,98368.81
2023-01-31T16:54:28.672Z,98375.81
2023-01-31T16:57:01.066Z,98381.81
2023-01-31T16:59:33.445Z,98376.53
2023-01-31T17:02:02.283Z,98374.03
2023-01-31T17:04:28.774Z,98369.72
2023-01-31T17:07:03.559Z,98371.41
2023-01-31T17:09:30.141Z,98370.06
2023-01-31T17:11:56.776Z,98368.97
2023-01-31T17:14:23.585Z,98372.56
2023-01-31T17:16:51.308Z,98375.91
2023-01-31T17:19:17.823Z,98376.53
2023-01-31T17:21:44.430Z,98378.44
2023-01-31T17:24:16.340Z,98367.44
2023-01-31T17:26:42.966Z,98372.78
2023-01-31T17:29:09.618Z,98383.94
2023-01-31T17:31:36.126Z,98382.47
2023-01-31T17:34:03.363Z,98382.25
2023-01-31T17:36:30.795Z,98393.22
2023-01-31T17:38:57.412Z,98387.38
2023-01-31T17:41:24.709Z,98383.34
2023-01-31T17:43:51.386Z,98383.47
2023-01-31T17:46:18.330Z,98386.50
2023-01-31T17:48:44.863Z,98381.56
2023-01-31T17:51:11.595Z,98379.69
2023-01-31T17:53:47.967Z,98369.72
2023-01-31T17:56:16.602Z,98366.53
2023-01-31T17:58:43.196Z,98372.13
2023-01-31T18:01:10.695Z,98379.28
2023-01-31T18:03:37.323Z,98385.06
2023-01-31T18:06:04.828Z,98380.97
2023-01-31T18:08:31.427Z,98386.94
2023-01-31T18:11:05.975Z,98379.50
2023-01-31T18:13:32.510Z,98384.97
2023-01-31T18:16:06.297Z,98378.66
2023-01-31T18:18:32.883Z,98379.50
2023-01-31T18:20:59.425Z,98379.50
2023-01-31T18:23:26.059Z,98369.19
2023-01-31T18:25:52.584Z,98384.25
2023-01-31T18:28:19.066Z,98378.34
2023-01-31T18:30:45.618Z,98382.06
2023-01-31T18:33:12.128Z,98381.41
2023-01-31T18:35:38.660Z,98386.78
2023-01-31T18:38:07.626Z,98382.47
2023-01-31T18:40:34.162Z,98366.69
2023-01-31T18:43:00.653Z,98370.50
2023-01-31T18:45:27.220Z,98366.19
2023-01-31T18:47:53.700Z,98361.44
2023-01-31T18:50:20.231Z,98376.38
2023-01-31T18:52:47.368Z,98373.34
2023-01-31T18:55:13.888Z,98374.28
2023-01-31T18:57:40.401Z,98379.97
2023-01-31T19:00:07.786Z,98381.03
2023-01-31T19:02:34.698Z,98380.31
2023-01-31T19:05:02.114Z,98387.22
2023-01-31T19:07:28.628Z,98387.13
2023-01-31T19:09:55.162Z,98378.28
2023-01-31T19:12:21.651Z,98390.25
2023-01-31T19:14:48.417Z,98390.34
2023-01-31T19:17:15.819Z,98391.09
2023-01-31T19:19:42.310Z,98393.09
2023-01-31T19:22:08.837Z,98394.44
2023-01-31T19:24:35.305Z,98390.75
2023-01-31T19:27:01.780Z,98389.56
2023-01-31T19:29:28.963Z,98377.53
2023-01-31T19:31:55.572Z,98390.22
2023-01-31T19:34:22.182Z,98382.56
2023-01-31T19:36:49.129Z,98376.56
2023-01-31T19:39:15.695Z,98381.63
2023-01-31T19:41:42.476Z,98384.00
2023-01-31T19:44:09.210Z,98372.78
2023-01-31T19:46:36.409Z,98370.66
2023-01-31T19:49:03.024Z,98372.97
2023-01-31T19:51:29.631Z,98375.47
2023-01-31T19:54:04.001Z,98374.75
2023-01-31T19:56:30.922Z,98370.63
2023-01-31T19:58:57.459Z,98367.50
2023-01-31T20:01:24.201Z,98373.34
2023-01-31T20:03:51.164Z,98370.63
2023-01-31T20:06:20.399Z,98368.09
2023-01-31T20:08:54.064Z,98372.94
2023-01-31T20:11:20.595Z,98372.69
2023-01-31T20:13:49.383Z,98371.66
2023-01-31T20:16:16.119Z,98349.28
2023-01-31T20:18:42.682Z,98373.50
2023-01-31T20:21:15.809Z,98367.50
2023-01-31T20:23:42.790Z,98367.59
2023-01-31T20:26:11.311Z,98365.69
2023-01-31T20:28:38.802Z,98355.41
2023-01-31T20:31:06.420Z,98352.19
2023-01-31T20:33:33.187Z,98331.97
2023-01-31T20:35:59.738Z,98339.53
2023-01-31T20:38:26.225Z,98355.19
2023-01-31T20:40:53.595Z,98351.69
2023-01-31T20:43:21.172Z,98355.03
2023-01-31T20:45:48.033Z,98358.63
2023-01-31T20:48:14.584Z,98351.88
2023-01-31T20:50:41.100Z,98353.19
2023-01-31T20:53:16.368Z,98375.53
2023-01-31T20:55:42.858Z,98369.25
2023-01-31T20:58:09.313Z,98373.69
2023-01-31T21:00:35.812Z,98371.19
2023-01-31T21:03:03.585Z,98370.63
2023-01-31T21:05:31.121Z,98373.06
2023-01-31T21:07:57.588Z,98355.81
2023-01-31T21:10:24.228Z,98353.94
2023-01-31T21:12:50.719Z,98343.16
2023-01-31T21:15:17.222Z,98353.69
2023-01-31T21:17:43.759Z,98343.47
2023-01-31T21:20:11.152Z,98352.69
2023-01-31T21:22:37.654Z,98335.09
2023-01-31T21:25:04.504Z,98340.16
2023-01-31T21:27:31.031Z,98334.88
2023-01-31T21:29:57.531Z,98333.22
2023-01-31T21:32:24.041Z,98326.53
2023-01-31T21:34:52.246Z,98330.84
2023-01-31T21:37:18.821Z,98335.75
2023-01-31T21:39:45.359Z,98333.13
2023-01-31T21:42:15.518Z,98333.59
2023-01-31T21:44:47.089Z,98341.16
2023-01-31T21:47:14.442Z,98341.38
2023-01-31T21:49:40.944Z,98344.00
2023-01-31T21:52:07.644Z,98357.16
2023-01-31T21:54:34.246Z,98362.66
2023-01-31T21:57:00.732Z,98363.00
2023-01-31T21:59:27.258Z,98365.97
2023-01-31T22:01:53.787Z,98361.03
2023-01-31T22:04:20.911Z,98365.47
2023-01-31T22:06:48.537Z,98364.63
2023-01-31T22:09:15.152Z,98355.66
2023-01-31T22:11:42.232Z,98341.44
2023-01-31T22:14:10.386Z,98343.97
2023-01-31T22:16:37.003Z,98346.09
2023-01-31T22:19:03.832Z,98358.53
2023-01-31T22:21:31.856Z,98351.56
2023-01-31T22:23:59.039Z,98346.75
2023-01-31T22:26:27.222Z,98350.72
2023-01-31T22:28:54.821Z,98369.06
2023-01-31T22:31:21.435Z,98353.94
2023-01-31T22:33:48.109Z,98360.34
2023-01-31T22:36:15.228Z,98358.78
2023-01-31T22:38:41.760Z,98355.44
2023-01-31T22:41:09.815Z,98336.53
2023-01-31T22:43:37.630Z,98355.25
2023-01-31T22:46:04.549Z,98344.69
2023-01-31T22:48:31.157Z,98345.31
2023-01-31T22:50:59.035Z,98349.25
2023-01-31T22:53:26.108Z,98352.19
2023-01-31T22:55:52.588Z,98355.53
2023-01-31T22:58:19.991Z,98362.69
2023-01-31T23:00:46.879Z,98361.22
2023-01-31T23:03:13.649Z,98352.63
2023-01-31T23:05:42.916Z,98343.28
2023-01-31T23:08:10.531Z,98349.50
2023-01-31T23:10:37.146Z,98348.00
2023-01-31T23:13:04.071Z,98356.84
2023-01-31T23:15:30.785Z,98354.00
2023-01-31T23:17:57.395Z,98322.81
2023-01-31T23:20:24.627Z,98345.16
2023-01-31T23:22:55.836Z,98333.94
2023-01-31T23:25:23.371Z,98334.13
2023-01-31T23:27:49.915Z,98327.19
2023-01-31T23:30:17.978Z,98327.00
2023-01-31T23:32:44.678Z,98328.66
2023-01-31T23:35:11.439Z,98333.09
2023-01-31T23:37:38.342Z,98335.59
2023-01-31T23:40:05.822Z,98350.41
2023-01-31T23:42:32.372Z,98355.25
2023-01-31T23:44:58.871Z,98347.13
2023-01-31T23:47:25.825Z,98347.88
2023-01-31T23:49:52.299Z,98334.94
2023-01-31T23:52:18.762Z,98325.50
2023-01-31T23:54:45.264Z,98326.34
2023-01-31T23:57:11.742Z,98323.22
2023-01-31T23:59:38.316Z,98305.72
